sensor_id;sensor_type;location;lat;lon;timestamp;pressure;altitude;pressure_sealevel;temperature;humidity
12913;BME280;6524;51.368;11.984;2022-12-07T00:03:11;100208.91;;;3.34;100.00
12913;BME280;6524;51.368;11.984;2022-12-07T00:08:11;100198.72;;;3.20;100.00
12913;BME280;6524;51.368;11.984;2022-12-07T00:13:12;100188.41;;;3.20;100.00
12913;BME280;6524;51.368;11.984;2022-12-07T00:18:12;100178.91;;;3.25;100.00
12913;BME280;6524;51.368;11.984;2022-12-07T00:23:12;100178.09;;;3.20;100.00
12913;BME280;6524;51.368;11.984;2022-12-07T00:28:13;100173.84;;;3.11;99.80
12913;BME280;6524;51.368;11.984;2022-12-07T00:33:13;100169.63;;;2.96;100.00
12913;BME280;6524;51.368;11.984;2022-12-07T00:38:14;100173.03;;;3.05;100.00
12913;BME280;6524;51.368;11.984;2022-12-07T00:43:14;100167.91;;;3.01;100.00
12913;BME280;6524;51.368;11.984;2022-12-07T00:48:14;100159.34;;;2.96;99.95
12913;BME280;6524;51.368;11.984;2022-12-07T00:53:18;100158.44;;;3.02;99.46
12913;BME280;6524;51.368;11.984;2022-12-07T00:58:23;100149.88;;;2.97;99.06
12913;BME280;6524;51.368;11.984;2022-12-07T05:00:24;99962.47;;;4.07;99.65
12913;BME280;6524;51.368;11.984;2022-12-07T05:05:24;99969.34;;;4.08;99.81
12913;BME280;6524;51.368;11.984;2022-12-07T05:10:25;99965.78;;;4.18;99.51
12913;BME280;6524;51.368;11.984;2022-12-07T05:15:25;99976.09;;;4.18;99.77
12913;BME280;6524;51.368;11.984;2022-12-07T05:20:25;99976.00;;;4.24;99.69
12913;BME280;6524;51.368;11.984;2022-12-07T05:25:26;99975.97;;;4.27;100.00
12913;BME280;6524;51.368;11.984;2022-12-07T05:30:26;99976.09;;;4.18;100.00
12913;BME280;6524;51.368;11.984;2022-12-07T05:35:26;99971.75;;;4.22;99.85
12913;BME280;6524;51.368;11.984;2022-12-07T05:40:27;99975.25;;;4.17;100.00
12913;BME280;6524;51.368;11.984;2022-12-07T05:45:27;99964.84;;;4.22;100.00
12913;BME280;6524;51.368;11.984;2022-12-07T05:50:27;99961.41;;;4.22;100.00
12913;BME280;6524;51.368;11.984;2022-12-07T05:55:28;99954.69;;;4.11;100.00
12913;BME280;6524;51.368;11.984;2022-12-07T06:00:28;99950.28;;;4.18;100.00
12913;BME280;6524;51.368;11.984;2022-12-07T06:05:28;99950.34;;;4.13;100.00
12913;BME280;6524;51.368;11.984;2022-12-07T06:10:29;99948.06;;;3.92;100.00
12913;BME280;6524;51.368;11.984;2022-12-07T06:15:29;99942.09;;;3.85;100.00
12913;BME280;6524;51.368;11.984;2022-12-07T06:20:29;99945.63;;;3.78;100.00
12913;BME280;6524;51.368;11.984;2022-12-07T06:25:30;99948.38;;;3.64;100.00
12913;BME280;6524;51.368;11.984;2022-12-07T06:30:30;99939.81;;;3.62;100.00
12913;BME280;6524;51.368;11.984;2022-12-07T06:35:32;99946.69;;;3.62;100.00
12913;BME280;6524;51.368;11.984;2022-12-07T06:40:32;99950.13;;;3.62;100.00
12913;BME280;6524;51.368;11.984;2022-12-07T06:45:33;99954.53;;;3.54;100.00
12913;BME280;6524;51.368;11.984;2022-12-07T06:50:33;99962.22;;;3.56;100.00
12913;BME280;6524;51.368;11.984;2022-12-07T06:55:33;99957.03;;;3.59;100.00
12913;BME280;6524;51.368;11.984;2022-12-07T07:00:34;99964.81;;;3.53;100.00
12913;BME280;6524;51.368;11.984;2022-12-07T07:05:35;99961.34;;;3.58;100.00
12913;BME280;6524;51.368;11.984;2022-12-07T07:10:36;99960.34;;;3.68;100.00
12913;BME280;6524;51.368;11.984;2022-12-07T07:15:37;99964.63;;;3.71;100.00
12913;BME280;6524;51.368;11.984;2022-12-07T07:20:38;99967.88;;;3.85;100.00
12913;BME280;6524;51.368;11.984;2022-12-07T07:25:38;99975.53;;;3.93;100.00
12913;BME280;6524;51.368;11.984;2022-12-07T07:30:39;99974.72;;;3.89;100.00
12913;BME280;6524;51.368;11.984;2022-12-07T07:35:39;99974.84;;;3.80;100.00
12913;BME280;6524;51.368;11.984;2022-12-07T07:40:40;99973.75;;;4.00;100.00
12913;BME280;6524;51.368;11.984;2022-12-07T07:45:41;99973.50;;;4.18;100.00
12913;BME280;6524;51.368;11.984;2022-12-07T07:50:41;99979.63;;;4.11;100.00
12913;BME280;6524;51.368;11.984;2022-12-07T07:55:41;99982.81;;;4.28;100.00
12913;BME280;6524;51.368;11.984;2022-12-07T08:00:49;99988.31;;;5.21;100.00
12913;BME280;6524;51.368;11.984;2022-12-07T08:05:50;99988.25;;;6.17;99.71
12913;BME280;6524;51.368;11.984;2022-12-07T08:10:50;99991.84;;;6.10;94.62
12913;BME280;6524;51.368;11.984;2022-12-07T08:15:51;99986.91;;;5.98;94.53
12913;BME280;6524;51.368;11.984;2022-12-07T08:20:51;99986.47;;;6.19;93.88
12913;BME280;6524;51.368;11.984;2022-12-07T08:25:51;99986.66;;;6.51;91.84
12913;BME280;6524;51.368;11.984;2022-12-07T08:30:52;99980.56;;;6.53;91.80
12913;BME280;6524;51.368;11.984;2022-12-07T08:35:52;99990.78;;;6.59;90.46
12913;BME280;6524;51.368;11.984;2022-12-07T08:40:56;99993.53;;;6.52;90.36
12913;BME280;6524;51.368;11.984;2022-12-07T08:46:10;99989.19;;;6.54;90.06
12913;BME280;6524;51.368;11.984;2022-12-07T08:51:12;99992.06;;;6.79;89.39
12913;BME280;6524;51.368;11.984;2022-12-07T08:56:13;99996.13;;;6.89;89.04
12913;BME280;6524;51.368;11.984;2022-12-07T09:01:13;100000.13;;;6.66;90.00
12913;BME280;6524;51.368;11.984;2022-12-07T09:06:14;99997.59;;;6.63;90.90
12913;BME280;6524;51.368;11.984;2022-12-07T09:11:14;100004.41;;;6.67;91.39
12913;BME280;6524;51.368;11.984;2022-12-07T09:16:15;100006.41;;;6.56;92.29
12913;BME280;6524;51.368;11.984;2022-12-07T09:21:15;100001.34;;;6.50;91.88
12913;BME280;6524;51.368;11.984;2022-12-07T09:26:15;99988.28;;;6.56;92.60
12913;BME280;6524;51.368;11.984;2022-12-07T09:31:16;99990.59;;;6.68;90.11
12913;BME280;6524;51.368;11.984;2022-12-07T09:36:16;99986.28;;;6.29;91.66
12913;BME280;6524;51.368;11.984;2022-12-07T09:41:17;99987.78;;;6.39;92.09
12913;BME280;6524;51.368;11.984;2022-12-07T09:46:19;99985.69;;;6.55;92.09
12913;BME280;6524;51.368;11.984;2022-12-07T09:51:22;99983.59;;;6.70;90.85
12913;BME280;6524;51.368;11.984;2022-12-07T09:56:36;99984.63;;;6.65;90.62
12913;BME280;6524;51.368;11.984;2022-12-07T10:07:17;99975.78;;;6.35;93.36
12913;BME280;6524;51.368;11.984;2022-12-07T10:18:30;99972.03;;;6.49;92.65
12913;BME280;6524;51.368;11.984;2022-12-07T10:23:31;99971.69;;;6.63;91.66
12913;BME280;6524;51.368;11.984;2022-12-07T10:28:35;99960.97;;;6.41;93.05
12913;BME280;6524;51.368;11.984;2022-12-07T10:33:38;99966.84;;;6.49;93.54
12913;BME280;6524;51.368;11.984;2022-12-07T10:39:13;99956.69;;;6.39;93.36
12913;BME280;6524;51.368;11.984;2022-12-07T10:44:22;99960.91;;;6.44;93.16
12913;BME280;6524;51.368;11.984;2022-12-07T11:21:18;99950.00;;;7.03;89.26
12913;BME280;6524;51.368;11.984;2022-12-07T11:26:42;99949.19;;;7.01;89.30
12913;BME280;6524;51.368;11.984;2022-12-07T11:37:09;99943.38;;;9.02;80.37
12913;BME280;6524;51.368;11.984;2022-12-07T11:42:22;99941.06;;;8.94;78.21
12913;BME280;6524;51.368;11.984;2022-12-07T11:53:00;99934.94;;;8.13;81.66
12913;BME280;6524;51.368;11.984;2022-12-07T11:58:18;99930.88;;;7.73;82.88
12913;BME280;6524;51.368;11.984;2022-12-07T12:03:34;99932.41;;;7.49;83.75
12913;BME280;6524;51.368;11.984;2022-12-07T12:08:46;99927.81;;;7.27;84.79
12913;BME280;6524;51.368;11.984;2022-12-07T12:19:32;99918.63;;;7.14;85.18
12913;BME280;6524;51.368;11.984;2022-12-07T12:24:37;99912.94;;;7.34;84.39
12913;BME280;6524;51.368;11.984;2022-12-07T12:29:41;99910.81;;;7.48;83.16
12913;BME280;6524;51.368;11.984;2022-12-07T12:45:25;99921.44;;;7.06;85.24
12913;BME280;6524;51.368;11.984;2022-12-07T12:50:31;99905.59;;;6.83;85.50
12913;BME280;6524;51.368;11.984;2022-12-07T13:00:42;99881.63;;;7.09;83.73
12913;BME280;6524;51.368;11.984;2022-12-07T13:05:42;99892.28;;;7.31;82.68
12913;BME280;6524;51.368;11.984;2022-12-07T13:10:47;99890.47;;;7.33;83.85
12913;BME280;6524;51.368;11.984;2022-12-07T13:20:51;99882.47;;;7.09;84.08
12913;BME280;6524;51.368;11.984;2022-12-07T13:31:23;99882.25;;;6.84;85.86
12913;BME280;6524;51.368;11.984;2022-12-07T13:36:26;99882.44;;;6.77;85.57
12913;BME280;6524;51.368;11.984;2022-12-07T13:41:28;99881.81;;;6.67;84.24
12913;BME280;6524;51.368;11.984;2022-12-07T13:57:21;99886.28;;;6.62;84.80
12913;BME280;6524;51.368;11.984;2022-12-07T14:02:28;99889.81;;;6.58;84.99
12913;BME280;6524;51.368;11.984;2022-12-07T14:07:28;99892.66;;;6.47;85.08
12913;BME280;6524;51.368;11.984;2022-12-07T14:12:30;99898.75;;;6.44;84.72
12913;BME280;6524;51.368;11.984;2022-12-07T14:17:31;99891.97;;;6.40;84.83
12913;BME280;6524;51.368;11.984;2022-12-07T14:22:34;99881.84;;;6.30;84.93
12913;BME280;6524;51.368;11.984;2022-12-07T14:27:35;99887.97;;;6.25;85.31
12913;BME280;6524;51.368;11.984;2022-12-07T14:32:37;99889.81;;;6.20;84.53
12913;BME280;6524;51.368;11.984;2022-12-07T14:37:39;99885.66;;;6.15;84.44
12913;BME280;6524;51.368;11.984;2022-12-07T14:42:39;99881.25;;;6.18;84.27
12913;BME280;6524;51.368;11.984;2022-12-07T14:47:41;99886.75;;;6.03;83.94
12913;BME280;6524;51.368;11.984;2022-12-07T14:52:43;99891.94;;;6.03;83.92
12913;BME280;6524;51.368;11.984;2022-12-07T14:57:46;99892.84;;;6.00;83.55
12913;BME280;6524;51.368;11.984;2022-12-07T15:02:47;99879.97;;;5.99;84.21
12913;BME280;6524;51.368;11.984;2022-12-07T15:07:50;99879.91;;;6.02;83.85
12913;BME280;6524;51.368;11.984;2022-12-07T15:12:51;99876.34;;;6.06;84.25
12913;BME280;6524;51.368;11.984;2022-12-07T15:17:51;99870.47;;;5.98;83.94
12913;BME280;6524;51.368;11.984;2022-12-07T15:22:52;99870.41;;;6.01;83.78
12913;BME280;6524;51.368;11.984;2022-12-07T15:27:52;99879.38;;;6.23;83.38
12913;BME280;6524;51.368;11.984;2022-12-07T15:32:52;99881.53;;;6.06;83.22
12913;BME280;6524;51.368;11.984;2022-12-07T15:37:53;99871.16;;;6.06;84.40
12913;BME280;6524;51.368;11.984;2022-12-07T15:42:53;99884.19;;;6.01;84.43
12913;BME280;6524;51.368;11.984;2022-12-07T15:47:54;99883.84;;;5.76;85.75
12913;BME280;6524;51.368;11.984;2022-12-07T15:52:55;99890.91;;;5.68;85.50
12913;BME280;6524;51.368;11.984;2022-12-07T15:57:55;99893.16;;;5.85;85.67
12913;BME280;6524;51.368;11.984;2022-12-07T16:02:55;99894.81;;;5.89;84.97
12913;BME280;6524;51.368;11.984;2022-12-07T16:07:56;99887.06;;;5.88;85.91
12913;BME280;6524;51.368;11.984;2022-12-07T16:12:57;99893.13;;;5.87;85.63
12913;BME280;6524;51.368;11.984;2022-12-07T16:17:57;99899.16;;;5.86;86.10
12913;BME280;6524;51.368;11.984;2022-12-07T16:22:58;99899.22;;;5.84;86.03
12913;BME280;6524;51.368;11.984;2022-12-07T16:27:58;99900.91;;;5.85;86.51
12913;BME280;6524;51.368;11.984;2022-12-07T16:32:59;99895.84;;;5.80;86.62
12913;BME280;6524;51.368;11.984;2022-12-07T16:37:59;99890.59;;;5.84;86.07
12913;BME280;6524;51.368;11.984;2022-12-07T16:42:59;99894.41;;;5.67;87.31
12913;BME280;6524;51.368;11.984;2022-12-07T16:48:00;99896.56;;;5.44;87.90
12913;BME280;6524;51.368;11.984;2022-12-07T16:53:00;99892.84;;;5.57;86.85
12913;BME280;6524;51.368;11.984;2022-12-07T16:58:00;99884.66;;;5.37;87.81
12913;BME280;6524;51.368;11.984;2022-12-07T17:03:01;99896.63;;;5.41;87.54
12913;BME280;6524;51.368;11.984;2022-12-07T17:08:01;99886.34;;;5.38;87.52
12913;BME280;6524;51.368;11.984;2022-12-07T17:13:03;99882.94;;;5.36;88.53
12913;BME280;6524;51.368;11.984;2022-12-07T17:18:26;99877.59;;;5.45;88.57
12913;BME280;6524;51.368;11.984;2022-12-07T17:23:27;99878.53;;;5.41;88.36
12913;BME280;6524;51.368;11.984;2022-12-07T17:28:27;99875.88;;;5.44;88.79
12913;BME280;6524;51.368;11.984;2022-12-07T17:33:28;99882.81;;;5.42;88.29
12913;BME280;6524;51.368;11.984;2022-12-07T17:38:28;99882.81;;;5.42;87.74
12913;BME280;6524;51.368;11.984;2022-12-07T17:43:28;99880.34;;;5.36;86.63
12913;BME280;6524;51.368;11.984;2022-12-07T17:48:29;99867.41;;;5.37;86.81
12913;BME280;6524;51.368;11.984;2022-12-07T17:53:29;99867.59;;;5.26;88.02
12913;BME280;6524;51.368;11.984;2022-12-07T17:58:29;99871.00;;;5.30;88.08
12913;BME280;6524;51.368;11.984;2022-12-07T18:03:30;99875.44;;;5.23;88.11
12913;BME280;6524;51.368;11.984;2022-12-07T18:08:34;99872.84;;;5.23;88.60
12913;BME280;6524;51.368;11.984;2022-12-07T18:13:35;99871.19;;;5.19;89.13
12913;BME280;6524;51.368;11.984;2022-12-07T18:18:36;99870.50;;;5.11;90.05
12913;BME280;6524;51.368;11.984;2022-12-07T18:23:36;99864.72;;;4.97;90.45
12913;BME280;6524;51.368;11.984;2022-12-07T18:28:37;99860.28;;;5.03;90.38
12913;BME280;6524;51.368;11.984;2022-12-07T18:33:38;99863.72;;;5.04;90.70
12913;BME280;6524;51.368;11.984;2022-12-07T18:38:40;99863.09;;;4.93;91.67
12913;BME280;6524;51.368;11.984;2022-12-07T18:43:41;99863.94;;;4.92;91.87
12913;BME280;6524;51.368;11.984;2022-12-07T18:48:41;99857.81;;;4.97;91.79
12913;BME280;6524;51.368;11.984;2022-12-07T18:53:42;99851.81;;;4.97;91.32
12913;BME280;6524;51.368;11.984;2022-12-07T18:58:48;99866.75;;;4.79;92.07
12913;BME280;6524;51.368;11.984;2022-12-07T19:04:08;99861.19;;;5.02;91.66
12913;BME280;6524;51.368;11.984;2022-12-07T19:09:08;99863.66;;;5.08;91.19
12913;BME280;6524;51.368;11.984;2022-12-07T19:14:09;99860.91;;;5.16;91.09
12913;BME280;6524;51.368;11.984;2022-12-07T19:19:10;99853.94;;;5.21;91.46
12913;BME280;6524;51.368;11.984;2022-12-07T19:24:11;99850.56;;;5.16;91.87
12913;BME280;6524;51.368;11.984;2022-12-07T19:29:12;99841.16;;;5.14;92.08
12913;BME280;6524;51.368;11.984;2022-12-07T19:34:15;99842.09;;;5.11;92.29
12913;BME280;6524;51.368;11.984;2022-12-07T19:39:15;99851.38;;;5.20;91.24
12913;BME280;6524;51.368;11.984;2022-12-07T19:44:21;99851.34;;;5.21;91.22
12913;BME280;6524;51.368;11.984;2022-12-07T19:49:25;99854.06;;;5.15;92.21
12913;BME280;6524;51.368;11.984;2022-12-07T19:54:28;99850.75;;;5.07;92.18
12913;BME280;6524;51.368;11.984;2022-12-07T19:59:29;99846.25;;;5.18;92.01
12913;BME280;6524;51.368;11.984;2022-12-07T20:04:30;99847.06;;;5.20;91.11
12913;BME280;6524;51.368;11.984;2022-12-07T20:09:34;99842.03;;;5.14;91.47
12913;BME280;6524;51.368;11.984;2022-12-07T20:14:35;99847.19;;;5.14;91.61
12913;BME280;6524;51.368;11.984;2022-12-07T20:19:37;99830.19;;;5.01;91.94
12913;BME280;6524;51.368;11.984;2022-12-07T20:24:38;99825.16;;;4.95;92.11
12913;BME280;6524;51.368;11.984;2022-12-07T20:29:39;99835.38;;;5.01;91.83
12913;BME280;6524;51.368;11.984;2022-12-07T20:34:39;99826.97;;;4.90;92.49
12913;BME280;6524;51.368;11.984;2022-12-07T20:39:39;99822.66;;;4.88;92.97
12913;BME280;6524;51.368;11.984;2022-12-07T20:44:40;99827.03;;;4.86;93.24
12913;BME280;6524;51.368;11.984;2022-12-07T20:49:40;99815.16;;;4.76;93.42
12913;BME280;6524;51.368;11.984;2022-12-07T20:54:42;99818.50;;;4.81;93.33
12913;BME280;6524;51.368;11.984;2022-12-07T20:59:44;99815.03;;;4.82;93.75
12913;BME280;6524;51.368;11.984;2022-12-07T21:04:45;99816.91;;;4.74;94.04
12913;BME280;6524;51.368;11.984;2022-12-07T21:09:46;99803.34;;;4.63;93.88
12913;BME280;6524;51.368;11.984;2022-12-07T21:14:46;99811.75;;;4.74;93.97
12913;BME280;6524;51.368;11.984;2022-12-07T21:19:47;99803.84;;;4.82;93.56
12913;BME280;6524;51.368;11.984;2022-12-07T21:24:48;99800.53;;;4.77;94.36
12913;BME280;6524;51.368;11.984;2022-12-07T21:29:48;99800.47;;;4.78;93.44
12913;BME280;6524;51.368;11.984;2022-12-07T21:34:49;99800.66;;;4.69;94.21
12913;BME280;6524;51.368;11.984;2022-12-07T21:39:56;99792.69;;;4.81;93.69
12913;BME280;6524;51.368;11.984;2022-12-07T21:44:56;99799.19;;;5.01;93.01
12913;BME280;6524;51.368;11.984;2022-12-07T21:49:57;99797.44;;;5.03;92.51
12913;BME280;6524;51.368;11.984;2022-12-07T21:54:58;99790.66;;;4.99;91.89
12913;BME280;6524;51.368;11.984;2022-12-07T21:59:59;99791.63;;;4.92;92.67
12913;BME280;6524;51.368;11.984;2022-12-07T22:05:05;99782.00;;;5.00;92.97
12913;BME280;6524;51.368;11.984;2022-12-07T22:10:06;99782.13;;;4.94;92.98
12913;BME280;6524;51.368;11.984;2022-12-07T22:15:07;99779.53;;;4.95;92.64
12913;BME280;6524;51.368;11.984;2022-12-07T22:20:09;99781.38;;;4.87;92.97
12913;BME280;6524;51.368;11.984;2022-12-07T22:25:11;99784.88;;;4.84;92.11
12913;BME280;6524;51.368;11.984;2022-12-07T22:30:12;99784.94;;;4.81;93.25
12913;BME280;6524;51.368;11.984;2022-12-07T22:35:13;99780.56;;;4.85;92.81
12913;BME280;6524;51.368;11.984;2022-12-07T22:40:13;99781.47;;;4.82;93.54
12913;BME280;6524;51.368;11.984;2022-12-07T22:45:14;99773.78;;;4.79;93.93
12913;BME280;6524;51.368;11.984;2022-12-07T22:50:14;99771.84;;;4.91;93.26
12913;BME280;6524;51.368;11.984;2022-12-07T22:55:14;99767.53;;;4.91;92.52
12913;BME280;6524;51.368;11.984;2022-12-07T23:00:15;99753.88;;;4.86;93.19
12913;BME280;6524;51.368;11.984;2022-12-07T23:05:15;99751.91;;;4.99;92.66
12913;BME280;6524;51.368;11.984;2022-12-07T23:10:16;99747.88;;;4.82;93.20
12913;BME280;6524;51.368;11.984;2022-12-07T23:15:16;99750.22;;;4.96;93.14
12913;BME280;6524;51.368;11.984;2022-12-07T23:20:17;99743.38;;;4.94;92.62
12913;BME280;6524;51.368;11.984;2022-12-07T23:25:17;99740.72;;;4.97;92.15
12913;BME280;6524;51.368;11.984;2022-12-07T23:30:18;99745.72;;;5.04;91.48
12913;BME280;6524;51.368;11.984;2022-12-07T23:35:18;99742.19;;;5.10;91.07
12913;BME280;6524;51.368;11.984;2022-12-07T23:40:18;99733.75;;;5.02;91.53
12913;BME280;6524;51.368;11.984;2022-12-07T23:45:19;99725.94;;;5.05;91.43
12913;BME280;6524;51.368;11.984;2022-12-07T23:50:19;99720.84;;;5.00;91.31
12913;BME280;6524;51.368;11.984;2022-12-07T23:55:19;99709.47;;;5.09;90.82
